createdAt,value
2024-05-09T10:15:34.391Z,656.3
2024-05-09T10:17:17.014Z,656.9
2024-05-09T10:19:00.511Z,655.4
2024-05-09T10:20:44.106Z,654.7
2024-05-09T10:22:27.849Z,656.1
2024-05-09T10:24:11.549Z,658.3
2024-05-09T10:25:55.141Z,661.1
2024-05-09T10:27:38.861Z,663
2024-05-09T10:29:22.781Z,671.9
2024-05-09T10:31:06.326Z,682.1
2024-05-09T10:32:50.078Z,693.4
2024-05-09T10:34:33.881Z,702.3
2024-05-09T10:36:18.025Z,713
2024-05-09T10:38:01.129Z,701.9
2024-05-09T10:39:44.811Z,686.4
2024-05-09T10:41:28.555Z,696.8
2024-05-09T10:43:12.176Z,702
2024-05-09T10:44:55.867Z,703.4
2024-05-09T10:46:39.627Z,702.6
2024-05-09T10:48:23.384Z,706.5
2024-05-09T10:50:06.988Z,707.6
2024-05-09T10:51:50.699Z,708.8
2024-05-09T10:53:34.423Z,706.8
2024-05-09T10:55:18.165Z,707.5
2024-05-09T10:57:02.112Z,706.6
2024-05-09T10:58:45.504Z,705.3
2024-05-09T11:00:29.223Z,703.8
2024-05-09T11:02:12.904Z,702.1
2024-05-09T11:03:56.631Z,698.7
2024-05-09T11:05:40.313Z,697.5
2024-05-09T11:07:24.010Z,695.2
2024-05-09T11:09:07.714Z,695
2024-05-09T11:10:51.419Z,692.5
2024-05-09T11:12:35.117Z,689.6
2024-05-09T11:14:18.857Z,689
2024-05-09T11:16:02.706Z,688.5
2024-05-09T11:17:46.225Z,685.5
2024-05-09T11:19:29.915Z,683.1
2024-05-09T11:21:13.680Z,678.9
2024-05-09T11:22:57.344Z,676.9
2024-05-09T11:24:41.069Z,674.9
2024-05-09T11:26:24.857Z,674.7
2024-05-09T11:28:08.457Z,674
2024-05-09T11:29:52.136Z,677.1
2024-05-09T11:31:35.832Z,676.7
2024-05-09T11:33:19.527Z,677.9
2024-05-09T11:35:03.229Z,675.7
2024-05-09T11:36:46.940Z,675.4
2024-05-09T11:38:30.645Z,670.3
2024-05-09T11:40:14.328Z,668.7
2024-05-09T11:41:58.192Z,666.9
2024-05-09T11:43:41.747Z,667.5
2024-05-09T11:45:25.475Z,666.3
2024-05-09T11:47:09.151Z,665.7
2024-05-09T11:48:52.882Z,663.4
2024-05-09T11:50:36.556Z,661.8
2024-05-09T11:52:20.255Z,660.6
2024-05-09T11:54:03.964Z,659.7
2024-05-09T11:55:47.698Z,657.7
2024-05-09T11:57:31.591Z,660.2
2024-05-09T11:59:15.070Z,661.9
2024-05-09T12:00:58.831Z,664.6
2024-05-09T12:02:42.475Z,663.6
2024-05-09T12:04:26.185Z,661.7
2024-05-09T12:06:09.907Z,661.4
2024-05-09T12:07:53.580Z,658.8
2024-05-09T12:09:37.274Z,657.3
2024-05-09T12:11:20.988Z,656.9
2024-05-09T12:13:04.695Z,656.1
2024-05-09T12:14:48.387Z,657.2
2024-05-09T12:16:32.075Z,654.6
2024-05-09T12:18:15.809Z,654.1
2024-05-09T12:19:59.543Z,651.4
2024-05-09T12:21:43.192Z,650.3
2024-05-09T12:23:26.880Z,649.5
2024-05-09T12:25:10.584Z,649.2
2024-05-09T12:26:54.303Z,647.7
2024-05-09T12:28:37.991Z,646.2
2024-05-09T12:30:21.710Z,645.7
2024-05-09T12:32:05.388Z,645.5
2024-05-09T12:33:49.105Z,643.5
2024-05-09T12:35:32.815Z,644.3
2024-05-09T12:37:16.514Z,643.5
2024-05-09T12:39:00.201Z,642.4
2024-05-09T12:40:43.925Z,640.3
2024-05-09T12:42:27.709Z,640.7
2024-05-09T12:44:11.347Z,640.8
2024-05-09T12:45:55.003Z,638.3
2024-05-09T12:47:38.714Z,637.9
2024-05-09T12:49:22.485Z,638.4
2024-05-09T12:51:06.155Z,640.7
2024-05-09T12:52:49.819Z,639.3
2024-05-09T12:54:33.517Z,637.6
2024-05-09T12:56:17.288Z,634.6
2024-05-09T12:58:01.030Z,634.9
2024-05-09T12:59:44.713Z,635.2
2024-05-09T13:01:28.354Z,635.2
2024-05-09T13:03:12.022Z,634.1
2024-05-09T13:04:55.727Z,631.6
2024-05-09T13:06:39.432Z,628.8
2024-05-09T13:08:23.218Z,627
2024-05-09T13:10:06.822Z,627.1
2024-05-09T13:11:50.558Z,625.9
2024-05-09T13:13:34.270Z,625.9
2024-05-09T13:15:17.958Z,626.6
2024-05-09T13:17:01.720Z,632.1
2024-05-09T13:18:45.378Z,633.4
2024-05-09T13:20:29.032Z,629.9
2024-05-09T13:22:12.751Z,632.8
2024-05-09T13:23:56.510Z,636.1
2024-05-09T13:25:40.135Z,637.7
2024-05-09T13:27:23.817Z,642.7
2024-05-09T13:29:07.561Z,648
2024-05-09T13:30:51.247Z,656.5
2024-05-09T13:32:34.953Z,656.5
2024-05-09T13:34:18.655Z,652.4
2024-05-09T13:36:02.388Z,651.1
2024-05-09T13:37:46.039Z,654.9
2024-05-09T13:39:29.736Z,658
2024-05-09T13:41:13.424Z,663.2
2024-05-09T13:42:57.232Z,673.1
2024-05-09T13:44:40.846Z,701.4
2024-05-09T13:46:24.642Z,777
2024-05-09T13:48:09.408Z,776.2
2024-05-09T13:49:51.943Z,762.5
2024-05-09T13:51:35.649Z,748.6
2024-05-09T13:53:19.396Z,738.4
2024-05-09T13:55:03.028Z,734.3
2024-05-09T13:56:46.769Z,730.2
2024-05-09T13:58:30.443Z,728.5
2024-05-09T14:00:14.154Z,726.3
2024-05-09T14:01:57.839Z,726.7
2024-05-09T14:03:41.540Z,726.6
2024-05-09T14:05:25.375Z,723.6
2024-05-09T14:07:08.951Z,724.1
2024-05-09T14:08:52.655Z,724.8
2024-05-09T14:10:36.354Z,725.2
2024-05-09T14:12:20.106Z,727.4
2024-05-09T14:14:03.843Z,729.7
2024-05-09T14:15:47.446Z,731.3
2024-05-09T14:17:31.177Z,731.6
2024-05-09T14:19:15.008Z,734.9
2024-05-09T14:20:58.667Z,732.3
2024-05-09T14:22:43.105Z,731.5
2024-05-09T14:24:25.951Z,729.6
2024-05-09T14:26:09.788Z,730.7
2024-05-09T14:27:53.362Z,732.4
2024-05-09T14:29:37.075Z,730.2
2024-05-09T14:31:20.798Z,733.7
2024-05-09T14:33:04.454Z,740.4
2024-05-09T14:34:48.153Z,744.1
2024-05-09T14:36:31.977Z,748.2
2024-05-09T14:38:15.615Z,751.3
2024-05-09T14:39:59.251Z,756.6
2024-05-09T14:41:42.943Z,768.5
2024-05-09T14:43:26.711Z,784
2024-05-09T14:45:10.352Z,792.9
2024-05-09T14:46:54.237Z,794.6
2024-05-09T14:48:37.860Z,801.2
2024-05-09T14:50:21.472Z,804.9
2024-05-09T14:52:05.212Z,809
2024-05-09T14:53:48.871Z,813.1
2024-05-09T14:55:32.561Z,819.7
2024-05-09T14:57:16.871Z,822.5
2024-05-09T14:59:00.095Z,827.9
2024-05-09T15:00:43.687Z,830.9
2024-05-09T15:02:27.383Z,832.9
2024-05-09T15:04:11.131Z,832.7
2024-05-09T15:05:54.988Z,834.8
2024-05-09T15:07:38.493Z,839.8
2024-05-09T15:09:22.304Z,842.9
2024-05-09T15:11:06.019Z,843.3
2024-05-09T15:12:49.618Z,847.9
2024-05-09T15:14:33.285Z,851
2024-05-09T15:16:17.017Z,855.2
2024-05-09T15:18:00.712Z,854.8
2024-05-09T15:19:44.417Z,854.4
2024-05-09T15:21:28.116Z,857.6
2024-05-09T15:23:11.827Z,856.8
2024-05-09T15:24:55.489Z,863.7
2024-05-09T15:26:39.219Z,872.4
2024-05-09T15:28:22.919Z,877.2
2024-05-09T15:30:06.590Z,890.8
2024-05-09T15:31:50.287Z,895.9
2024-05-09T15:33:34.003Z,898.8
2024-05-09T15:35:17.681Z,899.8
2024-05-09T15:37:01.392Z,908.6
2024-05-09T15:38:45.100Z,912.1
2024-05-09T15:40:28.792Z,906.8
2024-05-09T15:42:12.511Z,902.4
2024-05-09T15:43:56.246Z,904.4
2024-05-09T15:45:39.900Z,914.4
2024-05-09T15:47:23.643Z,919.1
2024-05-09T15:49:07.288Z,921.9
2024-05-09T15:50:51.105Z,923.6
2024-05-09T15:52:34.731Z,924.6
2024-05-09T15:54:18.517Z,924.2
2024-05-09T15:56:02.333Z,915.8
2024-05-09T15:57:45.824Z,911.1
2024-05-09T15:59:29.497Z,909.2
2024-05-09T16:01:13.214Z,908.4
2024-05-09T16:02:56.912Z,906.9
2024-05-09T16:04:40.718Z,908.8
2024-05-09T16:06:24.378Z,911.7
2024-05-09T16:08:08.059Z,913
2024-05-09T16:09:51.730Z,916.1
2024-05-09T16:11:35.403Z,919.1
2024-05-09T16:13:19.228Z,920.2
2024-05-09T16:15:02.888Z,916.4
2024-05-09T16:16:46.619Z,919.9
2024-05-09T16:18:30.250Z,921.5
2024-05-09T16:20:13.926Z,924.5
2024-05-09T16:21:57.606Z,928.5
2024-05-09T16:23:41.377Z,929.3
2024-05-09T16:25:25.106Z,929.5
2024-05-09T16:27:08.826Z,932.5
2024-05-09T16:28:52.426Z,934.5
2024-05-09T16:30:36.241Z,933.5
2024-05-09T16:32:19.811Z,934
2024-05-09T16:34:03.523Z,938.2
2024-05-09T16:35:47.277Z,944.3
2024-05-09T16:37:30.931Z,944.3
2024-05-09T16:39:14.683Z,944.7
2024-05-09T16:40:58.330Z,942.9
2024-05-09T16:42:42.015Z,946.5
2024-05-09T16:44:25.745Z,949.8
2024-05-09T16:46:09.427Z,958
2024-05-09T16:47:53.130Z,964.9
2024-05-09T16:49:36.812Z,965
2024-05-09T16:51:20.522Z,963.2
2024-05-09T16:53:04.298Z,964.2
2024-05-09T16:54:47.912Z,967.2
2024-05-09T16:56:31.623Z,968.1
2024-05-09T16:58:15.334Z,966.8
2024-05-09T16:59:59.027Z,965.6
2024-05-09T17:01:42.815Z,963.1
2024-05-09T17:03:26.425Z,961.6
2024-05-09T17:05:10.145Z,959.5
2024-05-09T17:06:53.841Z,957.1
2024-05-09T17:08:37.595Z,957.4
2024-05-09T17:10:21.244Z,953.7
2024-05-09T17:12:04.962Z,953.9
2024-05-09T17:13:48.670Z,960.5
2024-05-09T17:15:32.368Z,967.3
2024-05-09T17:17:16.097Z,971.9
2024-05-09T17:18:59.775Z,982
2024-05-09T17:20:43.481Z,987.2
2024-05-09T17:22:27.177Z,992.2
2024-05-09T17:24:10.869Z,1001
2024-05-09T17:25:54.584Z,1009.4
2024-05-09T17:27:38.275Z,1014.1
2024-05-09T17:29:21.997Z,1018.8
2024-05-09T17:31:05.860Z,1019.4
2024-05-09T17:32:49.393Z,1021.5
2024-05-09T17:34:34.455Z,1024.8
2024-05-09T17:36:16.961Z,1027.8
2024-05-09T17:38:00.552Z,1032.2
2024-05-09T17:39:44.199Z,1041
2024-05-09T17:41:27.913Z,1054.6
2024-05-09T17:43:11.725Z,1066.3
2024-05-09T17:44:55.421Z,1078.7
2024-05-09T17:46:39.057Z,1102.5
2024-05-09T17:48:22.867Z,1110.7
2024-05-09T17:50:06.439Z,1114.2
2024-05-09T17:53:33.942Z,1116.3
2024-05-09T17:55:17.515Z,1118.5
2024-05-09T17:57:01.242Z,1121.2
2024-05-09T17:58:45.039Z,1120.1
2024-05-09T18:00:28.619Z,1116.8
2024-05-09T18:02:12.323Z,1118
2024-05-09T18:03:56.176Z,1114.8
2024-05-09T18:05:39.861Z,1113.1
2024-05-09T18:07:23.458Z,1111.8
2024-05-09T18:09:08.077Z,1115.5
2024-05-09T18:10:50.912Z,1117.7
2024-05-09T18:12:34.577Z,1120.1
2024-05-09T18:14:18.260Z,1118.2
2024-05-09T18:16:01.956Z,1118.6
2024-05-09T18:17:45.667Z,1118.3
2024-05-09T18:19:29.453Z,1120.1
2024-05-09T18:21:13.174Z,1122.2
2024-05-09T18:22:56.793Z,1125.4
2024-05-09T18:24:40.490Z,1127.6
2024-05-09T18:26:24.190Z,1128
2024-05-09T18:28:07.911Z,1129.9
2024-05-09T18:29:51.605Z,1133.4
2024-05-09T18:31:35.290Z,1140.1
2024-05-09T18:33:19.058Z,1145
2024-05-09T18:35:02.700Z,1151.3
2024-05-09T18:36:46.463Z,1157.3
2024-05-09T18:38:30.097Z,1159.9
2024-05-09T18:40:13.781Z,1166
2024-05-09T18:41:57.507Z,1171
2024-05-09T18:43:42.130Z,1181.9
2024-05-09T18:45:24.893Z,1193.4
2024-05-09T18:47:08.608Z,1194.7
2024-05-09T18:48:52.424Z,1198.9
2024-05-09T18:50:36.022Z,1202.6
2024-05-09T18:52:19.717Z,1206.2
2024-05-09T18:54:03.412Z,1212.5
2024-05-09T18:55:47.193Z,1216.1
2024-05-09T18:57:30.931Z,1222.4
2024-05-09T18:59:14.642Z,1233.6
2024-05-09T19:00:58.270Z,1243.2
2024-05-09T19:02:41.920Z,1252.3
2024-05-09T19:04:25.693Z,1263.6
2024-05-09T19:06:09.336Z,1278.8
2024-05-09T19:07:53.040Z,1283.9
2024-05-09T19:09:36.720Z,1291.7
2024-05-09T19:11:20.651Z,1300.3
2024-05-09T19:13:04.151Z,1313.1
2024-05-09T19:14:48.034Z,1324.6
2024-05-09T19:16:31.541Z,1327.3
2024-05-09T19:18:15.323Z,1327.6
2024-05-09T19:19:58.950Z,1335.7
2024-05-09T19:21:42.634Z,1343.5
2024-05-09T19:23:26.563Z,1348.6
2024-05-09T19:25:10.055Z,1354.2
2024-05-09T19:26:53.758Z,1354.5
2024-05-09T19:28:37.470Z,1356.4
2024-05-09T19:30:21.151Z,1361.2
2024-05-09T19:32:04.973Z,1363.5
2024-05-09T19:33:48.583Z,1360.7
2024-05-09T19:35:32.338Z,1360
2024-05-09T19:37:15.949Z,1357.1
2024-05-09T19:38:59.708Z,1355.8
2024-05-09T19:40:43.376Z,1358.6
2024-05-09T19:42:27.120Z,1358.8
2024-05-09T19:44:10.768Z,1356.5
2024-05-09T19:45:54.478Z,1358.2
2024-05-09T19:47:38.176Z,1359.7
2024-05-09T19:49:21.863Z,1360.1
2024-05-09T19:51:05.555Z,1357.9
2024-05-09T19:52:49.268Z,1356
2024-05-09T19:54:33.074Z,1357
2024-05-09T19:56:16.692Z,1357.4
2024-05-09T19:58:00.385Z,1363.4
2024-05-09T19:59:44.088Z,1361
2024-05-09T20:01:27.784Z,1352.6
2024-05-09T20:03:11.506Z,1350
2024-05-09T20:04:55.203Z,1346.6
2024-05-09T20:06:38.900Z,1351.1
2024-05-09T20:08:22.599Z,1356.8
2024-05-09T20:10:06.311Z,1359.3
2024-05-09T20:11:49.982Z,1361.1
2024-05-09T20:13:33.704Z,1362.4
2024-05-09T20:15:17.391Z,1365.4
2024-05-09T20:17:01.179Z,1368.9
2024-05-09T20:18:44.796Z,1368.3
2024-05-09T20:20:28.499Z,1363.7
2024-05-09T20:22:12.262Z,1363.9
2024-05-09T20:23:55.908Z,1364.9
2024-05-09T20:25:39.659Z,1364
2024-05-09T20:27:23.305Z,1362.4
2024-05-09T20:29:07.004Z,1366.7
2024-05-09T20:30:50.769Z,1374.5
2024-05-09T20:32:34.437Z,1378.1
2024-05-09T20:34:18.103Z,1376.8
2024-05-09T20:36:01.840Z,1372.9
2024-05-09T20:37:45.506Z,1373.1
2024-05-09T20:39:29.223Z,1372.7
2024-05-09T20:41:12.906Z,1372.3
2024-05-09T20:42:56.669Z,1372.2
2024-05-09T20:44:40.318Z,1372.1
2024-05-09T20:46:24.259Z,1369.3
2024-05-09T20:48:07.765Z,1368.6
2024-05-09T20:49:51.436Z,1366.7
2024-05-09T20:53:18.809Z,1365.6
2024-05-09T20:55:02.541Z,1371.9
2024-05-09T20:56:46.218Z,1374
2024-05-09T20:58:29.922Z,1370.7
2024-05-09T21:00:13.632Z,1366.6
2024-05-09T21:01:57.335Z,1364.5
2024-05-09T21:03:41.041Z,1365.1
2024-05-09T21:05:24.737Z,1366.7
2024-05-09T21:07:08.866Z,1366
2024-05-09T21:08:52.408Z,1363.7
2024-05-09T21:10:36.116Z,1364.2
2024-05-09T21:12:19.767Z,1364.9
2024-05-09T21:14:03.278Z,1366.8
2024-05-09T21:15:47.244Z,1367.5
2024-05-09T21:17:30.653Z,1371.7
2024-05-09T21:19:14.362Z,1370.2
2024-05-09T21:20:59.284Z,1370.4
2024-05-09T21:22:41.816Z,1370.3
2024-05-09T21:24:25.800Z,1368.7
2024-05-09T21:26:09.456Z,1368
2024-05-09T21:27:52.940Z,1366.6
2024-05-09T21:29:36.584Z,1367.4
2024-05-09T21:31:20.545Z,1370.4
2024-05-09T21:33:03.974Z,1370.8
2024-05-09T21:34:47.672Z,1370.6
2024-05-09T21:36:31.395Z,1366.7
2024-05-09T21:38:15.209Z,1366.6
2024-05-09T21:39:58.780Z,1366.8
2024-05-09T21:41:42.535Z,1363.3
2024-05-09T21:43:26.388Z,1362
2024-05-09T21:45:09.879Z,1358.3
2024-05-09T21:46:53.646Z,1350.7
2024-05-09T21:48:37.268Z,1338.7
2024-05-09T21:50:21.009Z,1326.8
2024-05-09T21:52:04.724Z,1308.1
2024-05-09T21:53:48.492Z,1290.5
2024-05-09T21:55:33.190Z,1271.8
2024-05-09T21:57:15.803Z,1261.7
2024-05-09T21:58:59.548Z,1252.4
2024-05-09T22:00:43.204Z,1247.3
2024-05-09T22:02:26.925Z,1241.8
2024-05-09T22:04:10.601Z,1237.8
2024-05-09T22:05:54.588Z,1231.2
2024-05-09T22:07:38.050Z,1230.1
2024-05-09T22:09:21.720Z,1224
2024-05-09T22:11:05.404Z,1217.9
2024-05-09T22:14:32.866Z,1202.8
2024-05-09T22:16:16.594Z,1198.1
2024-05-09T22:18:00.405Z,1192.8
2024-05-09T22:19:44.089Z,1188.5
2024-05-09T22:21:27.653Z,1184.6
2024-05-09T22:23:11.382Z,1180.5
2024-05-09T22:24:55.045Z,1177.1
2024-05-09T22:26:38.923Z,1173.9
2024-05-09T22:28:22.443Z,1171.9
2024-05-09T22:30:07.510Z,1168.2
2024-05-09T22:33:33.648Z,1162.3
2024-05-09T22:35:17.335Z,1158.9
2024-05-09T22:37:00.995Z,1154.7
2024-05-09T22:38:44.792Z,1149.8
2024-05-09T22:40:28.479Z,1150.8
2024-05-09T22:42:12.057Z,1148.9
2024-05-09T22:43:56.080Z,1143.5
2024-05-09T22:45:39.473Z,1138.5
2024-05-09T22:47:23.236Z,1134.3
2024-05-09T22:49:07.015Z,1133
2024-05-09T22:50:50.719Z,1129.9
2024-05-09T22:52:34.295Z,1123.8
2024-05-09T22:54:18.160Z,1119.5
2024-05-09T22:56:01.680Z,1118.8
2024-05-09T22:57:45.409Z,1112.8
2024-05-09T22:59:29.154Z,1109.9
2024-05-09T23:01:12.753Z,1105.9
2024-05-09T23:02:56.468Z,1101.6
2024-05-09T23:04:40.167Z,1099.3
2024-05-09T23:06:24.192Z,1095.2
2024-05-09T23:08:07.742Z,1092.8
2024-05-09T23:09:51.289Z,1090
2024-05-09T23:11:35.220Z,1086.7
2024-05-09T23:13:18.676Z,1085.6
2024-05-09T23:15:02.410Z,1083.5
2024-05-09T23:16:46.168Z,1079.4
2024-05-09T23:18:29.886Z,1075.1
2024-05-09T23:20:13.540Z,1068.7
2024-05-09T23:21:57.419Z,1064.9
2024-05-09T23:23:40.982Z,1064.3
2024-05-09T23:25:24.594Z,1060.4
2024-05-09T23:27:08.320Z,1059.9
2024-05-09T23:28:52.012Z,1058.7
2024-05-09T23:30:35.743Z,1057
2024-05-09T23:32:19.523Z,1056.1
2024-05-09T23:34:03.107Z,1053.4
2024-05-09T23:35:46.823Z,1048.3
2024-05-09T23:37:30.496Z,1043.2
2024-05-09T23:39:14.251Z,1040
2024-05-09T23:40:57.947Z,1034.7
2024-05-09T23:42:41.605Z,1032
2024-05-09T23:44:25.326Z,1029.1
2024-05-09T23:46:09.161Z,1022.6
2024-05-09T23:47:52.751Z,1024.6
2024-05-09T23:49:36.531Z,1021.9
2024-05-09T23:51:20.106Z,1022.5
2024-05-09T23:53:03.848Z,1018.8
2024-05-09T23:54:47.516Z,1015
2024-05-09T23:56:31.292Z,1014.2
2024-05-09T23:58:14.946Z,1012.6
2024-05-09T23:59:58.629Z,1011.7
